Time;durP1;ratioP1;P1;durP2;ratioP2;P2;SDS_P1;SDS_P2;PMS_P1;PMS_P2;Temp;Humidity;BMP_temperature;BMP_pressure;BME280_temperature;BME280_humidity;BME280_pressure;Samples;Min_cycle;Max_cycle;Signal;HPM_P1;HPM_P2
2023/03/10 00:01:20;;;;;;;28.13;7.50;;;12.10;99.90;;;;;;4939811;29;20031;-72
2023/03/10 00:03:46;;;;;;;41.45;9.38;;;12.00;99.90;;;;;;4941542;29;20032;-71
2023/03/10 00:06:14;;;;;;;36.00;19.60;;;12.00;99.90;;;;;;4933883;29;20489;-72
2023/03/10 00:08:40;;;;;;;33.63;8.60;;;12.10;99.90;;;;;;4934590;29;20032;-72
2023/03/10 00:11:06;;;;;;;31.45;7.70;;;12.00;99.90;;;;;;4933577;29;20054;-71
2023/03/10 00:13:32;;;;;;;26.30;8.25;;;12.00;99.90;;;;;;4952861;29;20062;-71
2023/03/10 00:15:58;;;;;;;38.03;9.27;;;12.10;99.90;;;;;;4949904;28;20023;-71
2023/03/10 00:18:24;;;;;;;35.40;7.93;;;12.00;99.90;;;;;;4937559;29;20043;-71
2023/03/10 00:20:51;;;;;;;34.58;7.57;;;12.00;99.90;;;;;;4937591;29;20031;-71
2023/03/10 00:23:18;;;;;;;30.95;8.10;;;12.10;99.90;;;;;;4933982;29;20028;-72
2023/03/10 00:25:44;;;;;;;40.50;7.97;;;12.10;99.90;;;;;;4934310;29;20031;-71
2023/03/10 00:28:10;;;;;;;35.05;7.63;;;12.10;99.90;;;;;;4937460;29;20034;-72
2023/03/10 00:30:36;;;;;;;29.38;8.85;;;12.10;99.90;;;;;;4937086;28;20032;-71
2023/03/10 00:33:02;;;;;;;27.20;9.95;;;12.10;99.90;;;;;;4937021;29;20043;-71
2023/03/10 00:35:28;;;;;;;37.58;9.02;;;12.10;99.90;;;;;;4937755;29;20046;-72
2023/03/10 00:37:55;;;;;;;26.92;8.52;;;12.10;99.90;;;;;;4937852;29;20028;-71
2023/03/10 00:40:21;;;;;;;25.25;7.85;;;12.10;99.90;;;;;;4935745;29;20047;-72
2023/03/10 00:42:47;;;;;;;32.90;7.82;;;12.10;99.90;;;;;;4936916;29;20035;-71
2023/03/10 00:45:13;;;;;;;27.48;9.18;;;12.00;99.90;;;;;;4936287;28;20376;-71
2023/03/10 00:47:39;;;;;;;22.13;9.60;;;12.00;99.90;;;;;;4936912;29;20043;-72
2023/03/10 00:50:05;;;;;;;29.83;8.73;;;12.00;99.90;;;;;;4937163;29;20401;-71
2023/03/10 00:52:32;;;;;;;36.30;8.55;;;12.00;99.90;;;;;;4936362;29;20047;-72
2023/03/10 00:54:58;;;;;;;34.45;8.48;;;12.00;99.90;;;;;;4934473;29;20050;-72
2023/03/10 00:57:24;;;;;;;30.02;8.23;;;12.00;99.90;;;;;;4935206;29;20039;-72
2023/03/10 00:59:50;;;;;;;30.80;8.98;;;12.00;99.90;;;;;;4936250;29;20035;-72
2023/03/10 01:02:18;;;;;;;30.48;7.78;;;12.00;99.90;;;;;;4951600;28;20050;-71
2023/03/10 01:04:44;;;;;;;37.45;8.73;;;12.00;99.90;;;;;;4949773;29;20028;-72
2023/03/10 01:07:10;;;;;;;39.97;9.85;;;12.00;99.90;;;;;;4935551;29;20043;-71
2023/03/10 01:09:36;;;;;;;29.70;8.40;;;11.90;99.90;;;;;;4935295;29;20052;-71
2023/03/10 01:12:02;;;;;;;31.30;7.78;;;11.80;99.90;;;;;;4943195;29;20040;-71
2023/03/10 01:14:30;;;;;;;26.17;7.93;;;11.80;99.90;;;;;;4951923;29;20051;-72
2023/03/10 01:16:58;;;;;;;39.72;9.07;;;11.70;99.90;;;;;;4936525;28;20044;-72
2023/03/10 01:19:24;;;;;;;35.70;9.10;;;11.50;99.90;;;;;;4936542;29;20051;-71
2023/03/10 01:21:50;;;;;;;35.35;10.05;;;11.50;99.90;;;;;;4936517;29;20036;-72
2023/03/10 01:24:16;;;;;;;28.83;8.55;;;11.40;99.90;;;;;;4933862;29;20031;-71
2023/03/10 01:26:42;;;;;;;26.75;9.43;;;11.30;99.90;;;;;;4935972;29;20039;-71
2023/03/10 01:35:53;;;;;;;25.13;7.50;;;11.10;99.90;;;;;;4937142;29;20581;-71
2023/03/10 01:38:19;;;;;;;26.13;8.00;;;11.10;99.90;;;;;;4935137;29;20039;-71
2023/03/10 01:40:49;;;;;;;35.08;9.35;;;11.00;99.90;;;;;;4934421;29;20481;-71
2023/03/10 01:43:28;;;;;;;23.58;14.90;;;11.00;99.90;;;;;;4936150;29;20051;-71
2023/03/10 01:46:00;;;;;;;30.58;10.85;;;10.90;99.90;;;;;;4933278;28;20066;-71
2023/03/10 01:48:27;;;;;;;18.05;9.40;;;10.90;99.90;;;;;;4936333;29;20052;-71
2023/03/10 01:50:53;;;;;;;24.90;11.38;;;10.90;99.90;;;;;;4934657;29;20036;-72
2023/03/10 01:53:19;;;;;;;18.75;10.80;;;10.90;99.90;;;;;;4934643;29;20044;-71
2023/03/10 01:55:57;;;;;;;23.90;6.65;;;10.80;99.90;;;;;;4934472;29;20036;-71
2023/03/10 01:58:24;;;;;;;20.13;6.57;;;10.80;99.90;;;;;;4919652;29;20032;-71
2023/03/10 02:00:51;;;;;;;24.75;8.35;;;10.80;99.90;;;;;;4922088;29;20035;-72
2023/03/10 02:03:32;;;;;;;28.33;7.50;;;10.80;99.90;;;;;;4942270;29;20035;-71
2023/03/10 02:06:00;;;;;;;19.40;7.88;;;10.70;99.90;;;;;;4919941;29;20019;-71
2023/03/10 02:08:28;;;;;;;19.65;7.18;;;10.60;99.90;;;;;;4919396;29;20032;-71
2023/03/10 02:10:55;;;;;;;23.63;7.72;;;10.50;99.90;;;;;;4917695;29;20052;-71
2023/03/10 02:13:21;;;;;;;22.98;7.38;;;10.50;99.90;;;;;;4951311;29;20485;-71
2023/03/10 02:15:47;;;;;;;21.92;7.30;;;10.50;99.90;;;;;;4945176;28;20032;-72
2023/03/10 02:18:14;;;;;;;17.10;6.47;;;10.50;99.90;;;;;;4935357;29;20062;-71
2023/03/10 02:20:43;;;;;;;19.88;6.90;;;10.40;99.90;;;;;;4918212;29;20477;-71
2023/03/10 02:23:10;;;;;;;26.50;7.10;;;10.40;99.90;;;;;;4919007;29;20044;-72
2023/03/10 02:25:39;;;;;;;24.90;7.93;;;10.40;99.90;;;;;;4918773;29;20035;-71
2023/03/10 02:28:05;;;;;;;21.60;6.97;;;10.50;99.90;;;;;;4934388;29;20054;-71
2023/03/10 02:30:42;;;;;;;24.30;7.55;;;10.50;99.90;;;;;;4935319;28;20032;-72
2023/03/10 02:33:10;;;;;;;25.85;7.70;;;10.50;99.90;;;;;;4919207;29;20036;-72
2023/03/10 02:35:37;;;;;;;28.98;7.53;;;10.50;99.90;;;;;;4932632;29;20031;-71
2023/03/10 02:38:03;;;;;;;35.60;8.30;;;10.50;99.90;;;;;;4934939;29;20031;-71
2023/03/10 02:40:42;;;;;;;36.30;8.80;;;10.50;99.90;;;;;;4932736;29;20473;-72
2023/03/10 02:43:29;;;;;;;25.27;7.32;;;10.50;99.90;;;;;;4934289;29;20031;-71
2023/03/10 02:45:57;;;;;;;28.25;7.50;;;10.40;99.90;;;;;;4918332;29;20521;-72
2023/03/10 02:48:32;;;;;;;20.25;7.13;;;10.30;99.90;;;;;;4934036;29;20385;-72
2023/03/10 02:50:58;;;;;;;14.38;6.88;;;10.30;99.90;;;;;;4933304;29;20044;-72
2023/03/10 02:53:25;;;;;;;23.25;7.50;;;10.30;99.90;;;;;;4934868;29;20512;-71
2023/03/10 02:55:52;;;;;;;19.83;7.05;;;10.20;99.90;;;;;;4933297;29;20499;-71
2023/03/10 02:58:18;;;;;;;27.00;7.65;;;10.30;99.90;;;;;;4933473;29;20031;-71
2023/03/10 03:00:46;;;;;;;16.63;6.55;;;10.20;99.90;;;;;;4934590;28;20031;-71
2023/03/10 03:03:12;;;;;;;13.60;6.93;;;10.30;99.90;;;;;;4943011;29;20031;-72
2023/03/10 03:05:38;;;;;;;25.95;6.55;;;10.20;99.90;;;;;;4933486;29;20093;-71
2023/03/10 03:08:05;;;;;;;28.90;7.15;;;10.20;99.90;;;;;;4933810;29;20031;-71
2023/03/10 03:10:31;;;;;;;18.02;6.38;;;10.20;99.90;;;;;;4932210;29;20047;-71
2023/03/10 03:12:57;;;;;;;20.90;6.70;;;10.20;99.90;;;;;;4938523;29;20031;-72
2023/03/10 03:15:23;;;;;;;21.85;7.30;;;10.20;99.90;;;;;;4933635;28;20048;-72
2023/03/10 03:17:49;;;;;;;13.98;5.57;;;10.20;99.90;;;;;;4932447;29;20043;-71
2023/03/10 03:20:16;;;;;;;18.40;7.25;;;10.20;99.90;;;;;;4934229;29;20032;-72
2023/03/10 03:22:45;;;;;;;11.43;5.07;;;10.20;99.90;;;;;;4933843;29;20046;-72
2023/03/10 03:25:13;;;;;;;17.23;5.85;;;10.20;99.90;;;;;;4916935;29;20043;-72
2023/03/10 03:27:39;;;;;;;17.10;5.60;;;10.20;99.90;;;;;;4933328;28;20473;-72
2023/03/10 03:30:07;;;;;;;14.15;6.35;;;10.20;99.90;;;;;;4932407;28;20036;-71
2023/03/10 03:32:34;;;;;;;15.70;5.55;;;10.20;99.90;;;;;;4925577;29;20043;-70
2023/03/10 03:35:00;;;;;;;18.08;6.05;;;10.20;99.90;;;;;;4933651;29;20032;-71
2023/03/10 03:37:26;;;;;;;15.68;5.38;;;10.20;99.90;;;;;;4934362;29;20064;-72
2023/03/10 03:39:52;;;;;;;18.88;6.25;;;10.20;99.90;;;;;;4925627;29;20042;-72
2023/03/10 03:42:18;;;;;;;18.73;6.72;;;10.20;99.90;;;;;;4934314;29;20023;-72
2023/03/10 03:44:44;;;;;;;18.38;6.03;;;10.20;99.90;;;;;;4931855;29;20046;-71
2023/03/10 03:47:11;;;;;;;24.65;7.15;;;10.20;99.90;;;;;;4933253;28;20036;-72
2023/03/10 03:49:37;;;;;;;31.02;14.98;;;10.20;99.90;;;;;;4934455;29;20477;-71
2023/03/10 03:52:04;;;;;;;22.48;7.30;;;10.20;99.90;;;;;;4934709;29;20058;-72
2023/03/10 03:54:30;;;;;;;21.67;7.45;;;10.20;99.90;;;;;;4937288;29;20043;-71
2023/03/10 03:56:56;;;;;;;22.92;6.97;;;10.10;99.90;;;;;;4938149;29;20036;-71
2023/03/10 03:59:22;;;;;;;21.27;6.30;;;10.20;99.90;;;;;;4938524;29;20039;-71
2023/03/10 04:01:48;;;;;;;16.55;7.57;;;10.20;99.90;;;;;;4947611;28;20035;-72
2023/03/10 04:04:14;;;;;;;17.83;6.60;;;10.20;99.90;;;;;;4956417;29;20038;-71
2023/03/10 04:06:41;;;;;;;24.08;6.32;;;10.20;99.90;;;;;;4937203;29;20609;-71
2023/03/10 04:09:09;;;;;;;17.70;6.10;;;10.20;99.90;;;;;;4936417;29;20042;-71
2023/03/10 04:11:35;;;;;;;13.05;4.88;;;10.20;99.90;;;;;;4937727;29;20055;-71
2023/03/10 04:14:01;;;;;;;19.88;5.68;;;10.20;99.90;;;;;;4936060;29;20051;-71
2023/03/10 04:16:27;;;;;;;18.02;6.10;;;10.20;99.90;;;;;;4936387;28;20058;-71
2023/03/10 04:18:53;;;;;;;13.82;5.70;;;10.20;99.90;;;;;;4938159;29;20043;-71
2023/03/10 04:21:19;;;;;;;18.73;4.70;;;10.20;99.90;;;;;;4938129;29;20050;-71
2023/03/10 04:23:46;;;;;;;19.95;5.97;;;10.20;99.90;;;;;;4937739;29;20035;-71
2023/03/10 04:26:12;;;;;;;16.20;6.03;;;10.20;99.90;;;;;;4939947;29;21674;-72
2023/03/10 04:28:38;;;;;;;18.98;5.45;;;10.20;99.90;;;;;;4935273;29;20460;-71
2023/03/10 04:31:11;;;;;;;11.48;4.95;;;10.20;99.90;;;;;;4943822;28;20039;-71
2023/03/10 04:33:37;;;;;;;12.90;5.68;;;10.20;99.90;;;;;;4942242;29;20043;-72
2023/03/10 04:36:03;;;;;;;16.58;4.22;;;10.20;99.90;;;;;;4957020;29;20031;-71
2023/03/10 04:38:30;;;;;;;12.32;5.13;;;10.20;99.90;;;;;;4936480;28;20496;-72
2023/03/10 04:40:57;;;;;;;12.93;5.78;;;10.20;99.90;;;;;;4937937;29;20481;-71
2023/03/10 04:43:24;;;;;;;17.67;5.55;;;10.10;99.90;;;;;;4940504;29;20414;-71
2023/03/10 04:45:50;;;;;;;13.40;5.63;;;10.10;99.90;;;;;;4937264;28;20501;-71
2023/03/10 04:48:16;;;;;;;14.27;5.32;;;10.10;99.90;;;;;;4937405;29;20023;-71
2023/03/10 04:50:42;;;;;;;14.30;4.90;;;10.20;99.90;;;;;;4937562;29;20428;-71
2023/03/10 04:53:08;;;;;;;21.42;5.75;;;10.20;99.90;;;;;;4936467;29;20373;-71
2023/03/10 04:55:34;;;;;;;21.38;5.85;;;10.20;99.90;;;;;;4936206;29;20027;-71
2023/03/10 04:58:00;;;;;;;19.33;6.07;;;10.10;99.90;;;;;;4936170;29;20084;-71
2023/03/10 05:00:26;;;;;;;21.05;7.93;;;10.10;99.90;;;;;;4952107;28;20035;-71
2023/03/10 05:02:52;;;;;;;17.70;5.97;;;10.10;99.90;;;;;;4954083;28;20027;-71
2023/03/10 05:05:19;;;;;;;16.90;4.93;;;10.10;99.90;;;;;;4936861;29;20038;-71
2023/03/10 05:07:45;;;;;;;16.17;5.57;;;10.10;99.90;;;;;;4935249;29;20036;-71
2023/03/10 05:10:11;;;;;;;11.85;5.18;;;10.10;99.90;;;;;;4936151;29;20040;-71
2023/03/10 05:12:38;;;;;;;22.48;13.55;;;10.10;99.90;;;;;;4934415;29;20413;-71
2023/03/10 05:15:05;;;;;;;12.95;4.68;;;10.10;99.90;;;;;;4936651;28;20031;-71
2023/03/10 05:17:31;;;;;;;17.65;5.78;;;10.10;99.90;;;;;;4936905;29;20433;-71
2023/03/10 05:19:57;;;;;;;15.65;5.18;;;10.10;99.90;;;;;;4936784;29;20031;-70
2023/03/10 05:22:23;;;;;;;17.00;4.80;;;10.10;99.90;;;;;;4936293;29;20413;-71
2023/03/10 05:24:49;;;;;;;14.95;4.90;;;10.10;99.90;;;;;;4936278;29;20023;-71
2023/03/10 05:27:18;;;;;;;18.05;5.28;;;10.10;99.90;;;;;;4935146;29;20465;-70
2023/03/10 05:29:44;;;;;;;17.80;5.18;;;10.10;99.90;;;;;;4935777;29;20023;-71
2023/03/10 05:32:10;;;;;;;13.55;5.35;;;10.10;99.90;;;;;;4935671;28;20040;-71
2023/03/10 05:34:36;;;;;;;12.13;5.03;;;10.10;99.90;;;;;;4952201;29;20039;-71
2023/03/10 05:37:02;;;;;;;15.30;5.03;;;10.10;99.90;;;;;;4955643;29;20046;-71
2023/03/10 05:39:28;;;;;;;15.25;5.47;;;10.10;99.90;;;;;;4940629;29;20403;-71
2023/03/10 05:41:55;;;;;;;11.80;5.30;;;10.10;99.90;;;;;;4936587;29;20023;-71
2023/03/10 05:44:21;;;;;;;12.40;5.22;;;10.10;99.90;;;;;;4935748;29;20031;-71
2023/03/10 05:46:47;;;;;;;13.93;4.88;;;10.10;99.90;;;;;;4935930;28;20405;-71
2023/03/10 05:49:13;;;;;;;17.38;5.00;;;10.10;99.90;;;;;;4933798;29;20035;-71
2023/03/10 05:51:39;;;;;;;18.08;4.68;;;10.10;99.90;;;;;;4934840;29;20023;-71
2023/03/10 05:54:05;;;;;;;11.65;7.20;;;10.10;99.90;;;;;;4935592;29;20040;-71
2023/03/10 05:56:31;;;;;;;14.05;4.85;;;10.10;99.90;;;;;;4934561;29;20032;-71
2023/03/10 05:58:57;;;;;;;15.65;7.57;;;10.10;99.90;;;;;;4936041;29;20042;-71
2023/03/10 06:01:23;;;;;;;10.10;4.10;;;10.10;99.90;;;;;;4935989;29;20043;-71
2023/03/10 06:03:49;;;;;;;13.43;5.30;;;10.10;99.90;;;;;;4936087;29;20035;-71
2023/03/10 06:06:15;;;;;;;19.33;5.57;;;10.10;99.90;;;;;;4935885;29;20051;-71
2023/03/10 06:08:42;;;;;;;11.40;5.28;;;10.10;99.90;;;;;;4935290;29;20047;-71
2023/03/10 06:11:08;;;;;;;14.80;5.55;;;10.10;99.90;;;;;;4935250;29;20048;-71
2023/03/10 06:13:34;;;;;;;14.80;6.53;;;10.10;99.90;;;;;;4945354;29;20039;-71
2023/03/10 06:16:01;;;;;;;13.52;4.85;;;10.10;99.90;;;;;;4934814;28;20039;-71
2023/03/10 06:18:28;;;;;;;11.15;6.82;;;10.10;99.90;;;;;;4918980;29;20036;-71
2023/03/10 06:20:54;;;;;;;19.35;5.45;;;10.10;99.90;;;;;;4934925;29;20035;-71
2023/03/10 06:23:20;;;;;;;15.88;5.47;;;10.10;99.90;;;;;;4934597;29;20031;-71
2023/03/10 06:25:57;;;;;;;13.30;4.88;;;10.00;99.90;;;;;;4935117;29;20039;-71
2023/03/10 06:28:23;;;;;;;12.75;7.68;;;10.00;99.90;;;;;;4933027;29;20449;-71
2023/03/10 06:30:54;;;;;;;18.55;5.68;;;10.00;99.90;;;;;;4935234;28;20028;-71
2023/03/10 06:33:20;;;;;;;29.80;27.27;;;10.00;99.90;;;;;;4939804;29;20039;-71
2023/03/10 06:35:47;;;;;;;18.52;5.65;;;10.00;99.90;;;;;;4950458;28;20040;-71
2023/03/10 06:38:13;;;;;;;27.85;20.95;;;10.00;99.90;;;;;;4935395;29;20035;-71
2023/03/10 06:40:39;;;;;;;14.10;5.53;;;10.00;99.90;;;;;;4935486;29;20034;-71
2023/03/10 06:43:05;;;;;;;9.70;4.40;;;10.00;99.90;;;;;;4933996;29;20417;-71
2023/03/10 06:45:31;;;;;;;16.33;4.70;;;9.90;99.90;;;;;;4933891;28;20040;-71
2023/03/10 06:47:57;;;;;;;8.85;4.43;;;10.00;99.90;;;;;;4934204;29;20050;-71
2023/03/10 06:50:23;;;;;;;11.23;4.95;;;9.90;99.90;;;;;;4934869;29;20047;-71
2023/03/10 06:52:49;;;;;;;11.18;4.28;;;9.90;99.90;;;;;;4935400;29;20047;-71
2023/03/10 06:55:15;;;;;;;10.13;4.55;;;10.00;99.90;;;;;;4935089;29;20040;-71
2023/03/10 06:57:41;;;;;;;14.52;5.18;;;9.90;99.90;;;;;;4934273;29;20078;-71
2023/03/10 07:00:10;;;;;;;12.30;4.45;;;9.90;99.90;;;;;;4934716;28;20035;-70
2023/03/10 07:02:37;;;;;;;11.95;4.13;;;9.90;99.90;;;;;;4933905;29;20046;-70
2023/03/10 07:05:05;;;;;;;16.67;5.30;;;9.90;99.90;;;;;;4935051;29;20051;-71
2023/03/10 07:07:31;;;;;;;10.15;4.43;;;9.90;99.90;;;;;;4934734;29;20034;-71
2023/03/10 07:09:57;;;;;;;10.05;4.05;;;9.90;99.90;;;;;;4934918;29;20513;-70
2023/03/10 07:12:23;;;;;;;8.82;5.55;;;9.90;99.90;;;;;;4940216;29;20035;-71
2023/03/10 07:14:50;;;;;;;13.63;4.47;;;9.90;99.90;;;;;;4917924;29;20465;-71
2023/03/10 07:17:16;;;;;;;12.30;4.57;;;9.90;99.90;;;;;;4933844;28;20040;-71
2023/03/10 07:19:43;;;;;;;14.77;5.13;;;9.90;99.90;;;;;;4934735;29;20047;-71
2023/03/10 07:22:09;;;;;;;10.07;4.35;;;9.90;99.90;;;;;;4935221;29;20055;-71
2023/03/10 07:24:35;;;;;;;15.98;4.68;;;9.90;99.90;;;;;;4934316;29;20051;-71
2023/03/10 07:27:01;;;;;;;8.70;3.88;;;9.90;99.90;;;;;;4936712;29;20035;-71
2023/03/10 07:29:27;;;;;;;12.35;5.07;;;9.90;99.90;;;;;;4938499;29;20437;-71
2023/03/10 07:31:54;;;;;;;16.50;5.20;;;9.90;99.90;;;;;;4925868;29;20040;-71
2023/03/10 07:34:20;;;;;;;16.00;5.28;;;10.00;99.90;;;;;;4937716;29;20392;-71
2023/03/10 07:36:46;;;;;;;15.95;4.75;;;10.00;99.90;;;;;;4938148;29;20036;-70
2023/03/10 07:39:12;;;;;;;18.25;5.00;;;10.00;99.90;;;;;;4938745;29;20047;-71
2023/03/10 07:41:38;;;;;;;11.43;6.10;;;10.00;99.90;;;;;;4938640;29;20046;-71
2023/03/10 07:44:04;;;;;;;18.98;6.40;;;10.10;99.90;;;;;;4936665;29;20493;-71
2023/03/10 07:46:30;;;;;;;12.02;4.40;;;10.00;99.90;;;;;;4938219;28;20043;-71
2023/03/10 07:48:58;;;;;;;70.05;62.75;;;10.00;99.90;;;;;;4935376;29;20031;-71
2023/03/10 07:51:25;;;;;;;10.60;4.60;;;9.90;99.90;;;;;;4937043;29;20439;-71
2023/03/10 07:53:52;;;;;;;11.68;4.60;;;9.90;99.90;;;;;;4937716;29;20039;-72
2023/03/10 07:56:18;;;;;;;11.27;5.60;;;9.90;99.90;;;;;;4937480;29;20043;-71
2023/03/10 07:58:44;;;;;;;14.15;4.70;;;9.90;99.90;;;;;;4926716;29;20117;-71
2023/03/10 08:01:15;;;;;;;12.63;4.00;;;9.90;99.90;;;;;;4934534;28;20036;-71
2023/03/10 08:03:41;;;;;;;12.73;4.50;;;9.90;99.90;;;;;;4936908;29;20516;-72
2023/03/10 08:06:07;;;;;;;14.65;4.88;;;10.00;99.90;;;;;;4937634;29;20039;-72
2023/03/10 08:08:33;;;;;;;10.23;4.32;;;10.00;99.90;;;;;;4936681;29;20054;-71
2023/03/10 08:11:04;;;;;;;13.65;4.80;;;10.10;99.90;;;;;;4934995;29;20067;-72
2023/03/10 08:13:30;;;;;;;11.65;4.30;;;10.00;99.90;;;;;;4956430;29;20051;-72
2023/03/10 08:15:58;;;;;;;16.65;5.03;;;10.10;99.90;;;;;;4955811;28;20043;-72
2023/03/10 08:18:25;;;;;;;10.60;4.20;;;10.10;99.90;;;;;;4937067;29;20042;-72
2023/03/10 08:20:51;;;;;;;14.98;4.68;;;10.10;99.90;;;;;;4934413;29;20036;-72
2023/03/10 08:23:17;;;;;;;12.25;4.82;;;10.10;99.90;;;;;;4934807;29;20032;-72
2023/03/10 08:25:43;;;;;;;10.95;4.13;;;10.00;99.90;;;;;;4937395;29;20046;-72
2023/03/10 08:28:09;;;;;;;15.85;4.82;;;10.10;99.90;;;;;;4932691;29;20035;-72
2023/03/10 08:30:37;;;;;;;12.10;5.03;;;10.10;99.90;;;;;;4931965;28;20059;-71
2023/03/10 08:33:06;;;;;;;12.63;4.57;;;10.20;99.90;;;;;;4937297;29;20468;-78
2023/03/10 08:35:33;;;;;;;11.75;4.25;;;10.20;99.90;;;;;;4935075;29;20063;-72
2023/03/10 08:37:59;;;;;;;14.65;4.60;;;10.20;99.90;;;;;;4935488;29;20046;-72
2023/03/10 08:40:25;;;;;;;9.75;5.05;;;10.30;99.90;;;;;;4935861;29;20041;-72
2023/03/10 08:42:51;;;;;;;8.52;3.75;;;10.20;99.90;;;;;;4936727;29;20046;-72
2023/03/10 08:45:17;;;;;;;12.10;4.65;;;10.20;99.90;;;;;;4934959;28;20032;-72
2023/03/10 08:47:43;;;;;;;11.02;4.22;;;10.30;99.90;;;;;;4933879;29;20409;-71
2023/03/10 08:50:10;;;;;;;14.20;8.25;;;10.40;99.90;;;;;;4934610;29;20035;-72
2023/03/10 08:52:36;;;;;;;8.23;4.25;;;10.60;99.90;;;;;;4936559;29;20055;-72
2023/03/10 08:55:04;;;;;;;11.07;4.40;;;10.80;99.90;;;;;;4937422;29;20047;-72
2023/03/10 08:57:30;;;;;;;6.82;5.18;;;10.80;99.90;;;;;;4935526;29;20044;-72
2023/03/10 08:59:56;;;;;;;15.88;4.57;;;10.90;99.90;;;;;;4937273;29;20051;-71
2023/03/10 09:02:22;;;;;;;9.90;7.10;;;10.90;99.90;;;;;;4934129;28;20047;-72
2023/03/10 09:04:49;;;;;;;10.85;4.40;;;10.90;99.90;;;;;;4935026;29;20047;-70
2023/03/10 09:07:15;;;;;;;10.68;4.13;;;10.90;99.90;;;;;;4932376;29;20047;-71
2023/03/10 09:09:41;;;;;;;10.88;4.55;;;10.90;99.90;;;;;;4936853;29;20055;-72
2023/03/10 09:12:08;;;;;;;12.18;8.35;;;10.80;99.90;;;;;;4944110;29;20449;-72
2023/03/10 09:14:35;;;;;;;11.43;5.60;;;10.90;99.90;;;;;;4935072;28;20052;-71
2023/03/10 09:17:01;;;;;;;8.98;3.90;;;11.00;99.90;;;;;;4931277;29;20385;-72
2023/03/10 09:19:27;;;;;;;13.52;4.65;;;11.20;99.90;;;;;;4945406;29;20062;-72
2023/03/10 09:21:56;;;;;;;12.40;4.65;;;11.20;99.90;;;;;;4934981;29;20028;-71
2023/03/10 09:24:25;;;;;;;7.78;4.47;;;11.30;99.90;;;;;;4933479;29;20046;-72
2023/03/10 09:26:51;;;;;;;10.10;3.95;;;11.40;99.90;;;;;;4936328;29;20396;-71
2023/03/10 09:29:17;;;;;;;6.63;4.07;;;11.30;99.90;;;;;;4934161;29;20044;-71
2023/03/10 09:31:47;;;;;;;12.43;4.18;;;11.30;99.90;;;;;;4932944;28;20415;-71
2023/03/10 09:34:13;;;;;;;10.38;4.43;;;11.30;99.90;;;;;;4935856;29;20400;-72
2023/03/10 09:36:39;;;;;;;16.27;4.55;;;11.40;99.90;;;;;;4936649;29;20051;-71
2023/03/10 09:39:05;;;;;;;7.03;4.38;;;11.40;99.90;;;;;;4935865;29;20423;-72
2023/03/10 09:41:46;;;;;;;13.05;4.75;;;11.40;99.90;;;;;;4935768;29;20059;-72
2023/03/10 09:44:15;;;;;;;8.23;3.75;;;11.60;99.90;;;;;;4936458;29;20728;-72
2023/03/10 09:46:49;;;;;;;13.18;4.18;;;11.70;99.90;;;;;;4946366;28;20043;-72
2023/03/10 09:49:15;;;;;;;13.75;4.90;;;11.70;99.90;;;;;;4946554;28;20039;-71
2023/03/10 09:51:44;;;;;;;13.40;4.53;;;11.70;99.90;;;;;;4945614;29;20081;-72
2023/03/10 09:54:26;;;;;;;9.30;4.13;;;11.70;99.90;;;;;;4938943;29;20047;-72
2023/03/10 09:56:53;;;;;;;10.52;4.88;;;11.70;99.90;;;;;;4927796;29;20050;-68
2023/03/10 09:59:34;;;;;;;13.27;5.32;;;11.70;99.90;;;;;;4928654;29;20101;-71
2023/03/10 10:02:00;;;;;;;11.20;6.45;;;11.70;99.90;;;;;;4901503;29;20539;-71
2023/03/10 10:04:30;;;;;;;14.00;4.82;;;11.70;99.90;;;;;;4933839;29;20485;-71
2023/03/10 10:06:57;;;;;;;11.23;4.43;;;11.70;99.90;;;;;;4918062;29;20030;-71
2023/03/10 10:09:26;;;;;;;10.10;4.28;;;11.70;99.90;;;;;;4919669;29;20294;-71
2023/03/10 10:11:53;;;;;;;8.63;4.88;;;11.80;99.90;;;;;;4926024;29;20023;-70
2023/03/10 10:14:20;;;;;;;9.65;4.65;;;11.90;99.90;;;;;;4953938;29;20456;-71
2023/03/10 10:16:58;;;;;;;11.07;4.97;;;12.00;99.90;;;;;;4937514;28;20046;-71
2023/03/10 10:19:26;;;;;;;12.15;4.93;;;12.00;99.90;;;;;;4928509;29;20038;-71
2023/03/10 10:22:20;;;;;;;13.13;5.00;;;12.10;99.90;;;;;;4926127;29;20030;-71
2023/03/10 10:25:14;;;;;;;10.30;5.28;;;12.10;99.90;;;;;;4937754;29;20039;-71
2023/03/10 10:27:40;;;;;;;13.98;5.35;;;12.10;99.90;;;;;;4939484;29;20031;-71
2023/03/10 10:30:43;;;;;;;8.48;4.82;;;12.00;99.90;;;;;;4937257;28;20042;-71
2023/03/10 10:33:10;;;;;;;9.43;4.78;;;11.90;99.90;;;;;;4954817;29;20035;-71
2023/03/10 10:35:45;;;;;;;7.55;4.38;;;11.80;99.90;;;;;;4924795;29;20039;-71
2023/03/10 10:38:13;;;;;;;10.20;5.00;;;11.60;99.90;;;;;;4917891;29;20031;-71
2023/03/10 10:41:02;;;;;;;8.25;5.75;;;11.60;99.90;;;;;;4935039;29;20043;-71
2023/03/10 10:43:28;;;;;;;12.23;4.90;;;11.70;99.90;;;;;;4917259;29;20031;-71
2023/03/10 10:46:03;;;;;;;9.45;5.43;;;11.80;99.90;;;;;;4925695;29;20044;-71
2023/03/10 10:48:32;;;;;;;9.60;4.70;;;12.00;99.90;;;;;;4925939;29;20397;-71
2023/03/10 10:50:58;;;;;;;10.57;5.40;;;12.00;99.90;;;;;;4934425;29;20044;-71
2023/03/10 10:53:25;;;;;;;11.23;5.38;;;11.90;99.90;;;;;;4933371;29;20048;-71
2023/03/10 10:56:05;;;;;;;9.88;5.18;;;12.00;99.90;;;;;;4933987;29;20031;-71
2023/03/10 10:58:33;;;;;;;10.52;5.70;;;12.20;99.90;;;;;;4916071;29;20039;-71
2023/03/10 11:01:07;;;;;;;11.65;5.00;;;12.30;99.90;;;;;;4926842;28;20054;-71
2023/03/10 11:03:43;;;;;;;11.32;6.10;;;12.40;99.90;;;;;;4932969;29;20496;-71
2023/03/10 11:06:26;;;;;;;7.43;6.53;;;12.40;99.90;;;;;;4917121;29;20385;-71
2023/03/10 11:09:08;;;;;;;10.50;5.55;;;12.30;99.90;;;;;;4921124;29;20027;-71
2023/03/10 11:11:48;;;;;;;12.75;5.78;;;12.40;99.90;;;;;;4930243;29;20063;-70
2023/03/10 11:14:18;;;;;;;14.45;6.28;;;12.40;99.90;;;;;;4932631;29;20058;-71
2023/03/10 11:16:50;;;;;;;8.45;5.95;;;12.50;99.90;;;;;;4933942;28;20055;-71
2023/03/10 11:19:36;;;;;;;11.10;5.65;;;12.50;99.90;;;;;;4933630;29;20031;-71
2023/03/10 11:22:26;;;;;;;16.83;5.07;;;12.30;99.90;;;;;;4932567;29;20055;-71
2023/03/10 11:25:25;;;;;;;9.25;5.75;;;12.20;99.90;;;;;;4932491;29;20038;-71
2023/03/10 11:28:01;;;;;;;11.73;5.78;;;12.20;99.90;;;;;;4918358;29;20036;-71
2023/03/10 11:30:37;;;;;;;13.88;4.97;;;12.20;99.90;;;;;;4931455;28;20047;-71
2023/03/10 11:33:19;;;;;;;9.60;4.90;;;12.30;99.90;;;;;;4918280;29;20030;-71
2023/03/10 11:35:50;;;;;;;7.38;5.47;;;12.50;99.90;;;;;;4931311;29;20047;-71
2023/03/10 11:38:38;;;;;;;12.30;5.93;;;12.70;99.90;;;;;;4916991;29;20384;-71
2023/03/10 11:41:12;;;;;;;8.15;6.13;;;12.70;99.90;;;;;;4915922;29;20040;-71
2023/03/10 11:43:42;;;;;;;7.78;6.63;;;12.70;99.90;;;;;;4914138;29;20028;-71
2023/03/10 11:46:27;;;;;;;11.30;6.05;;;12.80;99.90;;;;;;4929389;29;20046;-71
2023/03/10 11:49:06;;;;;;;12.32;6.32;;;13.00;99.90;;;;;;4922729;29;20365;-71
2023/03/10 11:51:48;;;;;;;7.05;6.40;;;12.90;99.90;;;;;;4930865;29;20027;-71
2023/03/10 11:54:20;;;;;;;11.38;5.68;;;12.80;99.90;;;;;;4913657;29;20092;-71
2023/03/10 11:56:46;;;;;;;11.32;7.15;;;12.80;99.90;;;;;;4898653;29;20044;-71
2023/03/10 11:59:32;;;;;;;8.25;5.82;;;12.90;99.90;;;;;;4919468;29;20026;-71
2023/03/10 12:02:31;;;;;;;14.63;8.02;;;13.00;99.90;;;;;;4919065;29;20040;-71
2023/03/10 12:05:24;;;;;;;8.52;6.75;;;12.90;99.90;;;;;;4932256;29;20043;-71
2023/03/10 12:07:52;;;;;;;10.73;6.47;;;12.90;99.90;;;;;;4930673;29;20036;-71
2023/03/10 12:10:20;;;;;;;12.45;6.50;;;12.90;99.90;;;;;;4932270;29;20047;-71
2023/03/10 12:12:48;;;;;;;9.43;6.28;;;13.00;99.90;;;;;;4934259;29;20031;-71
2023/03/10 12:15:25;;;;;;;11.07;5.90;;;13.10;99.90;;;;;;4935233;28;20064;-70
2023/03/10 12:17:52;;;;;;;8.70;6.53;;;13.20;99.90;;;;;;4920698;29;20035;-71
2023/03/10 12:20:18;;;;;;;11.32;6.22;;;13.40;99.90;;;;;;4936134;29;20024;-71
2023/03/10 12:22:51;;;;;;;6.72;6.03;;;13.60;99.90;;;;;;4937043;29;20388;-71
2023/03/10 12:25:29;;;;;;;8.02;6.80;;;13.70;99.90;;;;;;4934732;29;20024;-70
2023/03/10 12:28:16;;;;;;;10.93;6.05;;;13.80;99.90;;;;;;4929759;29;20027;-71
2023/03/10 12:30:44;;;;;;;11.45;5.80;;;13.70;99.90;;;;;;4934124;28;20034;-70
2023/03/10 12:33:29;;;;;;;8.48;6.20;;;13.70;99.90;;;;;;4936334;29;20039;-70
2023/03/10 12:36:08;;;;;;;8.40;5.93;;;13.70;99.90;;;;;;4930246;29;20048;-71
2023/03/10 12:38:58;;;;;;;10.23;6.50;;;13.70;99.90;;;;;;4926480;29;20050;-70
2023/03/10 12:41:27;;;;;;;9.15;5.82;;;13.60;99.90;;;;;;4927904;29;20042;-71
2023/03/10 12:44:01;;;;;;;8.10;5.60;;;13.50;99.90;;;;;;4931754;29;20043;-70
2023/03/10 12:46:49;;;;;;;9.52;6.35;;;13.40;99.90;;;;;;4933614;28;20032;-70
2023/03/10 12:49:29;;;;;;;9.05;5.88;;;13.40;99.90;;;;;;4929210;29;20036;-71
2023/03/10 12:52:29;;;;;;;9.20;5.85;;;13.40;99.90;;;;;;4928711;29;20031;-70
2023/03/10 12:55:14;;;;;;;13.38;6.25;;;13.40;99.90;;;;;;4928363;29;20038;-71